sensor_id;sensor_type;location;lat;lon;timestamp;pressure;altitude;pressure_sealevel;temperature
69857;BMP280;57147;53.582;10.112;2024-01-30T00:02:34;102576.31;;;4.72
69857;BMP280;57147;53.582;10.112;2024-01-30T00:07:34;102573.72;;;4.65
69857;BMP280;57147;53.582;10.112;2024-01-30T00:12:35;102589.31;;;4.80
69857;BMP280;57147;53.582;10.112;2024-01-30T00:17:36;102593.34;;;4.83
69857;BMP280;57147;53.582;10.112;2024-01-30T00:22:36;102579.38;;;4.76
69857;BMP280;57147;53.582;10.112;2024-01-30T00:27:37;102571.88;;;4.66
69857;BMP280;57147;53.582;10.112;2024-01-30T00:32:37;102575.72;;;4.70
69857;BMP280;57147;53.582;10.112;2024-01-30T00:37:37;102571.88;;;4.73
69857;BMP280;57147;53.582;10.112;2024-01-30T00:42:37;102558.09;;;4.71
69857;BMP280;57147;53.582;10.112;2024-01-30T00:47:37;102560.56;;;4.65
69857;BMP280;57147;53.582;10.112;2024-01-30T00:52:38;102552.22;;;4.55
69857;BMP280;57147;53.582;10.112;2024-01-30T00:57:39;102547.97;;;4.54
69857;BMP280;57147;53.582;10.112;2024-01-30T01:02:40;102550.03;;;4.52
69857;BMP280;57147;53.582;10.112;2024-01-30T01:07:40;102554.03;;;4.55
69857;BMP280;57147;53.582;10.112;2024-01-30T01:12:40;102552.84;;;4.57
69857;BMP280;57147;53.582;10.112;2024-01-30T01:17:41;102547.59;;;4.51
69857;BMP280;57147;53.582;10.112;2024-01-30T01:22:41;102554.47;;;4.58
69857;BMP280;57147;53.582;10.112;2024-01-30T01:27:41;102567.63;;;4.58
69857;BMP280;57147;53.582;10.112;2024-01-30T01:32:41;102567.63;;;4.58
69857;BMP280;57147;53.582;10.112;2024-01-30T01:37:42;102558.09;;;4.57
69857;BMP280;57147;53.582;10.112;2024-01-30T01:42:42;102559.94;;;4.63
69857;BMP280;57147;53.582;10.112;2024-01-30T01:47:42;102555.69;;;4.62
69857;BMP280;57147;53.582;10.112;2024-01-30T01:52:44;102552.03;;;4.63
69857;BMP280;57147;53.582;10.112;2024-01-30T01:57:46;102549.59;;;4.69
69857;BMP280;57147;53.582;10.112;2024-01-30T02:02:47;102543.75;;;4.67
69857;BMP280;57147;53.582;10.112;2024-01-30T02:07:47;102540.50;;;4.64
69857;BMP280;57147;53.582;10.112;2024-01-30T02:12:48;102529.38;;;4.62
69857;BMP280;57147;53.582;10.112;2024-01-30T02:17:51;102521.47;;;4.62
69857;BMP280;57147;53.582;10.112;2024-01-30T02:22:55;102510.72;;;4.71
69857;BMP280;57147;53.582;10.112;2024-01-30T02:27:56;102504.25;;;4.73
69857;BMP280;57147;53.582;10.112;2024-01-30T02:32:56;102507.09;;;4.72
69857;BMP280;57147;53.582;10.112;2024-01-30T02:37:56;102509.53;;;4.80
69857;BMP280;57147;53.582;10.112;2024-01-30T02:42:59;102502.25;;;4.82
69857;BMP280;57147;53.582;10.112;2024-01-30T02:47:59;102501.44;;;4.75
69857;BMP280;57147;53.582;10.112;2024-01-30T02:52:59;102508.53;;;4.81
69857;BMP280;57147;53.582;10.112;2024-01-30T02:58:00;102502.66;;;4.79
69857;BMP280;57147;53.582;10.112;2024-01-30T03:03:00;102489.28;;;4.74
69857;BMP280;57147;53.582;10.112;2024-01-30T03:08:00;102492.53;;;4.76
69857;BMP280;57147;53.582;10.112;2024-01-30T03:13:00;102492.31;;;4.71
69857;BMP280;57147;53.582;10.112;2024-01-30T03:18:02;102493.75;;;4.67
69857;BMP280;57147;53.582;10.112;2024-01-30T03:23:02;102469.88;;;4.61
69857;BMP280;57147;53.582;10.112;2024-01-30T03:28:02;102478.75;;;4.74
69857;BMP280;57147;53.582;10.112;2024-01-30T03:33:03;102477.56;;;4.63
69857;BMP280;57147;53.582;10.112;2024-01-30T03:38:03;102471.69;;;4.54
69857;BMP280;57147;53.582;10.112;2024-01-30T03:43:03;102465.44;;;4.49
69857;BMP280;57147;53.582;10.112;2024-01-30T03:48:04;102454.91;;;4.42
69857;BMP280;57147;53.582;10.112;2024-01-30T03:53:05;102451.25;;;4.43
69857;BMP280;57147;53.582;10.112;2024-01-30T03:58:05;102457.13;;;4.39
69857;BMP280;57147;53.582;10.112;2024-01-30T04:03:05;102450.03;;;4.39
69857;BMP280;57147;53.582;10.112;2024-01-30T04:08:05;102434.25;;;4.39
69857;BMP280;57147;53.582;10.112;2024-01-30T04:13:06;102438.31;;;4.35
69857;BMP280;57147;53.582;10.112;2024-01-30T04:18:08;102433.25;;;4.27
69857;BMP280;57147;53.582;10.112;2024-01-30T04:23:08;102446.41;;;4.27
69857;BMP280;57147;53.582;10.112;2024-01-30T04:28:15;102437.53;;;4.21
69857;BMP280;57147;53.582;10.112;2024-01-30T04:33:16;102450.88;;;4.20
69857;BMP280;57147;53.582;10.112;2024-01-30T04:38:16;102450.88;;;4.20
69857;BMP280;57147;53.582;10.112;2024-01-30T04:43:16;102459.75;;;4.19
69857;BMP280;57147;53.582;10.112;2024-01-30T04:48:16;102445.56;;;4.07
69857;BMP280;57147;53.582;10.112;2024-01-30T04:53:16;102434.66;;;4.10
69857;BMP280;57147;53.582;10.112;2024-01-30T04:58:17;102446.00;;;4.17
69857;BMP280;57147;53.582;10.112;2024-01-30T05:03:19;102444.78;;;4.13
69857;BMP280;57147;53.582;10.112;2024-01-30T05:08:19;102432.25;;;4.02
69857;BMP280;57147;53.582;10.112;2024-01-30T05:13:20;102402.75;;;3.86
69857;BMP280;57147;53.582;10.112;2024-01-30T05:18:21;102435.06;;;4.07
69857;BMP280;57147;53.582;10.112;2024-01-30T05:23:21;102429.78;;;4.07
69857;BMP280;57147;53.582;10.112;2024-01-30T05:28:21;102416.09;;;3.98
69857;BMP280;57147;53.582;10.112;2024-01-30T05:33:21;102416.91;;;3.99
69857;BMP280;57147;53.582;10.112;2024-01-30T05:38:22;102421.34;;;4.05
69857;BMP280;57147;53.582;10.112;2024-01-30T05:43:22;102416.47;;;4.02
69857;BMP280;57147;53.582;10.112;2024-01-30T05:48:22;102410.81;;;4.05
69857;BMP280;57147;53.582;10.112;2024-01-30T05:53:22;102401.09;;;4.12
69857;BMP280;57147;53.582;10.112;2024-01-30T05:58:23;102393.81;;;4.14
69857;BMP280;57147;53.582;10.112;2024-01-30T06:03:23;102407.38;;;4.11
69857;BMP280;57147;53.582;10.112;2024-01-30T06:08:23;102393.81;;;4.07
69857;BMP280;57147;53.582;10.112;2024-01-30T06:13:24;102361.50;;;3.93
69857;BMP280;57147;53.582;10.112;2024-01-30T06:18:24;102386.94;;;4.13
69857;BMP280;57147;53.582;10.112;2024-01-30T06:23:24;102380.06;;;4.25
69857;BMP280;57147;53.582;10.112;2024-01-30T06:28:24;102373.19;;;4.24
69857;BMP280;57147;53.582;10.112;2024-01-30T06:33:25;102355.19;;;4.21
69857;BMP280;57147;53.582;10.112;2024-01-30T06:38:25;102355.78;;;4.36
69857;BMP280;57147;53.582;10.112;2024-01-30T06:43:25;102356.19;;;4.33
69857;BMP280;57147;53.582;10.112;2024-01-30T06:48:25;102365.06;;;4.45
69857;BMP280;57147;53.582;10.112;2024-01-30T06:53:25;102359.81;;;4.45
69857;BMP280;57147;53.582;10.112;2024-01-30T06:58:27;102360.63;;;4.52
69857;BMP280;57147;53.582;10.112;2024-01-30T07:03:27;102362.22;;;4.53
69857;BMP280;57147;53.582;10.112;2024-01-30T07:08:27;102362.22;;;4.53
69857;BMP280;57147;53.582;10.112;2024-01-30T07:13:28;102356.97;;;4.53
69857;BMP280;57147;53.582;10.112;2024-01-30T07:18:28;102352.13;;;4.50
69857;BMP280;57147;53.582;10.112;2024-01-30T07:23:28;102355.34;;;4.52
69857;BMP280;57147;53.582;10.112;2024-01-30T07:28:28;102350.91;;;4.53
69857;BMP280;57147;53.582;10.112;2024-01-30T07:33:29;102349.25;;;4.58
69857;BMP280;57147;53.582;10.112;2024-01-30T07:38:31;102309.47;;;4.35
69857;BMP280;57147;53.582;10.112;2024-01-30T07:43:35;102352.47;;;4.60
69857;BMP280;57147;53.582;10.112;2024-01-30T07:48:35;102345.00;;;4.64
69857;BMP280;57147;53.582;10.112;2024-01-30T07:53:35;102353.28;;;4.68
69857;BMP280;57147;53.582;10.112;2024-01-30T08:04:13;102360.94;;;4.82
69857;BMP280;57147;53.582;10.112;2024-01-30T08:09:14;102345.34;;;4.81
69857;BMP280;57147;53.582;10.112;2024-01-30T08:14:14;102342.88;;;4.86
69857;BMP280;57147;53.582;10.112;2024-01-30T08:19:15;102337.78;;;4.91
69857;BMP280;57147;53.582;10.112;2024-01-30T08:24:15;102343.78;;;4.98
69857;BMP280;57147;53.582;10.112;2024-01-30T08:29:15;102336.09;;;5.03
69857;BMP280;57147;53.582;10.112;2024-01-30T08:34:15;102330.16;;;5.14
69857;BMP280;57147;53.582;10.112;2024-01-30T08:39:16;102343.69;;;5.24
69857;BMP280;57147;53.582;10.112;2024-01-30T08:44:17;102321.75;;;5.30
69857;BMP280;57147;53.582;10.112;2024-01-30T08:49:17;102335.84;;;5.43
69857;BMP280;57147;53.582;10.112;2024-01-30T08:54:17;102326.09;;;5.50
69857;BMP280;57147;53.582;10.112;2024-01-30T08:59:17;102261.88;;;5.19
69857;BMP280;57147;53.582;10.112;2024-01-30T09:04:18;102294.41;;;5.56
69857;BMP280;57147;53.582;10.112;2024-01-30T09:09:18;102292.91;;;5.67
69857;BMP280;57147;53.582;10.112;2024-01-30T09:14:18;102288.94;;;5.76
69857;BMP280;57147;53.582;10.112;2024-01-30T09:19:18;102297.31;;;5.91
69857;BMP280;57147;53.582;10.112;2024-01-30T09:24:19;102308.16;;;6.01
69857;BMP280;57147;53.582;10.112;2024-01-30T09:29:19;102319.78;;;6.19
69857;BMP280;57147;53.582;10.112;2024-01-30T09:34:19;102279.75;;;5.85
69857;BMP280;57147;53.582;10.112;2024-01-30T09:39:20;102347.47;;;6.28
69857;BMP280;57147;53.582;10.112;2024-01-30T09:44:20;102345.34;;;6.36
69857;BMP280;57147;53.582;10.112;2024-01-30T09:49:20;102348.34;;;6.40
69857;BMP280;57147;53.582;10.112;2024-01-30T09:54:21;102341.03;;;6.42
69857;BMP280;57147;53.582;10.112;2024-01-30T09:59:21;102346.00;;;6.50
69857;BMP280;57147;53.582;10.112;2024-01-30T10:04:21;102336.03;;;6.52
69857;BMP280;57147;53.582;10.112;2024-01-30T10:09:22;102307.91;;;6.46
69857;BMP280;57147;53.582;10.112;2024-01-30T10:14:22;102320.03;;;6.65
69857;BMP280;57147;53.582;10.112;2024-01-30T10:19:22;102306.94;;;6.70
69857;BMP280;57147;53.582;10.112;2024-01-30T10:24:26;102298.59;;;6.73
69857;BMP280;57147;53.582;10.112;2024-01-30T10:29:27;102318.63;;;6.93
69857;BMP280;57147;53.582;10.112;2024-01-30T10:34:28;102325.19;;;7.02
69857;BMP280;57147;53.582;10.112;2024-01-30T10:39:29;102314.34;;;7.10
69857;BMP280;57147;53.582;10.112;2024-01-30T10:44:30;102309.09;;;7.21
69857;BMP280;57147;53.582;10.112;2024-01-30T10:49:33;102297.72;;;7.21
69857;BMP280;57147;53.582;10.112;2024-01-30T10:54:34;102305.09;;;7.31
69857;BMP280;57147;53.582;10.112;2024-01-30T10:59:35;102312.78;;;7.44
69857;BMP280;57147;53.582;10.112;2024-01-30T11:04:41;102315.53;;;7.49
69857;BMP280;57147;53.582;10.112;2024-01-30T11:09:49;102297.13;;;7.54
69857;BMP280;57147;53.582;10.112;2024-01-30T11:14:49;102309.91;;;7.69
69857;BMP280;57147;53.582;10.112;2024-01-30T11:19:51;102314.50;;;7.85
69857;BMP280;57147;53.582;10.112;2024-01-30T11:24:51;102314.13;;;7.93
69857;BMP280;57147;53.582;10.112;2024-01-30T11:29:52;102302.41;;;8.00
69857;BMP280;57147;53.582;10.112;2024-01-30T11:34:52;102303.56;;;8.05
69857;BMP280;57147;53.582;10.112;2024-01-30T11:39:53;102315.16;;;8.15
69857;BMP280;57147;53.582;10.112;2024-01-30T11:44:54;102285.72;;;8.00
69857;BMP280;57147;53.582;10.112;2024-01-30T11:49:54;102296.72;;;8.20
69857;BMP280;57147;53.582;10.112;2024-01-30T11:54:54;102295.31;;;8.29
69857;BMP280;57147;53.582;10.112;2024-01-30T11:59:54;102309.13;;;8.31
69857;BMP280;57147;53.582;10.112;2024-01-30T12:04:55;102300.69;;;8.34
69857;BMP280;57147;53.582;10.112;2024-01-30T12:09:55;102299.28;;;8.44
69857;BMP280;57147;53.582;10.112;2024-01-30T12:15:03;102297.75;;;8.48
69857;BMP280;57147;53.582;10.112;2024-01-30T12:25:12;102288.91;;;8.54
69857;BMP280;57147;53.582;10.112;2024-01-30T12:30:13;102285.75;;;8.57
69857;BMP280;57147;53.582;10.112;2024-01-30T12:35:15;102266.66;;;8.55
69857;BMP280;57147;53.582;10.112;2024-01-30T12:40:16;102269.59;;;8.70
69857;BMP280;57147;53.582;10.112;2024-01-30T12:45:16;102270.63;;;8.69
69857;BMP280;57147;53.582;10.112;2024-01-30T12:50:17;102280.38;;;8.80
69857;BMP280;57147;53.582;10.112;2024-01-30T12:55:17;102280.19;;;8.87
69857;BMP280;57147;53.582;10.112;2024-01-30T13:00:17;102272.09;;;8.93
69857;BMP280;57147;53.582;10.112;2024-01-30T13:05:18;102278.13;;;9.05
69857;BMP280;57147;53.582;10.112;2024-01-30T13:10:18;102281.97;;;9.14
69857;BMP280;57147;53.582;10.112;2024-01-30T13:15:18;102283.56;;;9.15
69857;BMP280;57147;53.582;10.112;2024-01-30T13:20:18;102231.16;;;8.84
69857;BMP280;57147;53.582;10.112;2024-01-30T13:25:19;102270.88;;;9.18
69857;BMP280;57147;53.582;10.112;2024-01-30T13:30:19;102265.66;;;9.23
69857;BMP280;57147;53.582;10.112;2024-01-30T13:35:19;102271.03;;;9.28
69857;BMP280;57147;53.582;10.112;2024-01-30T13:40:20;102266.81;;;9.32
69857;BMP280;57147;53.582;10.112;2024-01-30T13:45:20;102261.38;;;9.38
69857;BMP280;57147;53.582;10.112;2024-01-30T13:50:20;102256.94;;;9.44
69857;BMP280;57147;53.582;10.112;2024-01-30T13:55:20;102254.06;;;9.45
69857;BMP280;57147;53.582;10.112;2024-01-30T14:00:21;102255.41;;;9.48
69857;BMP280;57147;53.582;10.112;2024-01-30T14:05:21;102256.03;;;9.55
69857;BMP280;57147;53.582;10.112;2024-01-30T14:10:22;102253.13;;;9.57
69857;BMP280;57147;53.582;10.112;2024-01-30T14:15:22;102245.44;;;9.55
69857;BMP280;57147;53.582;10.112;2024-01-30T14:20:22;102241.72;;;9.56
69857;BMP280;57147;53.582;10.112;2024-01-30T14:25:23;102244.13;;;9.58
69857;BMP280;57147;53.582;10.112;2024-01-30T14:30:23;102235.53;;;9.50
69857;BMP280;57147;53.582;10.112;2024-01-30T14:35:23;102238.81;;;9.58
69857;BMP280;57147;53.582;10.112;2024-01-30T14:40:23;102246.06;;;9.62
69857;BMP280;57147;53.582;10.112;2024-01-30T14:45:24;102236.53;;;9.66
69857;BMP280;57147;53.582;10.112;2024-01-30T14:50:24;102241.38;;;9.69
69857;BMP280;57147;53.582;10.112;2024-01-30T14:55:24;102226.97;;;9.65
69857;BMP280;57147;53.582;10.112;2024-01-30T15:00:24;102234.47;;;9.68
69857;BMP280;57147;53.582;10.112;2024-01-30T15:05:25;102248.75;;;9.67
69857;BMP280;57147;53.582;10.112;2024-01-30T15:10:25;102230.44;;;9.66
69857;BMP280;57147;53.582;10.112;2024-01-30T15:15:25;102222.72;;;9.64
69857;BMP280;57147;53.582;10.112;2024-01-30T15:20:25;102236.63;;;9.71
69857;BMP280;57147;53.582;10.112;2024-01-30T15:25:26;102240.06;;;9.72
69857;BMP280;57147;53.582;10.112;2024-01-30T15:30:26;102237.13;;;9.68
69857;BMP280;57147;53.582;10.112;2024-01-30T15:35:26;102234.94;;;9.65
69857;BMP280;57147;53.582;10.112;2024-01-30T15:40:27;102246.69;;;9.69
69857;BMP280;57147;53.582;10.112;2024-01-30T15:45:27;102232.63;;;9.69
69857;BMP280;57147;53.582;10.112;2024-01-30T15:50:27;102230.19;;;9.67
69857;BMP280;57147;53.582;10.112;2024-01-30T15:55:27;102229.78;;;9.75
69857;BMP280;57147;53.582;10.112;2024-01-30T16:00:27;102225.47;;;9.69
69857;BMP280;57147;53.582;10.112;2024-01-30T16:05:28;102228.16;;;9.74
69857;BMP280;57147;53.582;10.112;2024-01-30T16:10:28;102222.81;;;9.69
69857;BMP280;57147;53.582;10.112;2024-01-30T16:15:28;102201.41;;;9.54
69857;BMP280;57147;53.582;10.112;2024-01-30T16:20:28;102231.25;;;9.66
69857;BMP280;57147;53.582;10.112;2024-01-30T16:25:29;102197.00;;;9.43
69857;BMP280;57147;53.582;10.112;2024-01-30T16:30:29;102237.53;;;9.60
69857;BMP280;57147;53.582;10.112;2024-01-30T16:35:29;102222.06;;;9.52
69857;BMP280;57147;53.582;10.112;2024-01-30T16:40:29;102219.25;;;9.42
69857;BMP280;57147;53.582;10.112;2024-01-30T16:45:30;102229.53;;;9.55
69857;BMP280;57147;53.582;10.112;2024-01-30T16:50:30;102227.41;;;9.57
69857;BMP280;57147;53.582;10.112;2024-01-30T16:55:30;102190.84;;;9.37
69857;BMP280;57147;53.582;10.112;2024-01-30T17:00:30;102239.72;;;9.63
69857;BMP280;57147;53.582;10.112;2024-01-30T17:05:31;102241.84;;;9.66
69857;BMP280;57147;53.582;10.112;2024-01-30T17:10:31;102207.19;;;9.51
69857;BMP280;57147;53.582;10.112;2024-01-30T17:15:31;102250.44;;;9.73
69857;BMP280;57147;53.582;10.112;2024-01-30T17:20:31;102247.78;;;9.73
69857;BMP280;57147;53.582;10.112;2024-01-30T17:25:32;102256.84;;;9.77
69857;BMP280;57147;53.582;10.112;2024-01-30T17:30:32;102259.28;;;9.79
69857;BMP280;57147;53.582;10.112;2024-01-30T17:35:32;102259.00;;;9.80
69857;BMP280;57147;53.582;10.112;2024-01-30T17:40:32;102262.69;;;9.79
69857;BMP280;57147;53.582;10.112;2024-01-30T17:45:33;102259.00;;;9.80
69857;BMP280;57147;53.582;10.112;2024-01-30T17:50:33;102266.66;;;9.77
69857;BMP280;57147;53.582;10.112;2024-01-30T17:55:33;102267.22;;;9.79
69857;BMP280;57147;53.582;10.112;2024-01-30T18:00:34;102289.78;;;9.81
69857;BMP280;57147;53.582;10.112;2024-01-30T18:05:42;102287.16;;;9.81
69857;BMP280;57147;53.582;10.112;2024-01-30T18:10:42;102283.91;;;9.79
69857;BMP280;57147;53.582;10.112;2024-01-30T18:15:43;102296.94;;;9.81
69857;BMP280;57147;53.582;10.112;2024-01-30T18:20:43;102298.06;;;9.85
69857;BMP280;57147;53.582;10.112;2024-01-30T18:25:43;102308.13;;;9.83
69857;BMP280;57147;53.582;10.112;2024-01-30T18:30:44;102311.75;;;9.77
69857;BMP280;57147;53.582;10.112;2024-01-30T18:35:44;102318.59;;;9.73
69857;BMP280;57147;53.582;10.112;2024-01-30T18:40:44;102313.56;;;9.71
69857;BMP280;57147;53.582;10.112;2024-01-30T18:45:52;102319.34;;;9.68
69857;BMP280;57147;53.582;10.112;2024-01-30T18:50:52;102332.03;;;9.66
69857;BMP280;57147;53.582;10.112;2024-01-30T18:55:53;102336.22;;;9.62
69857;BMP280;57147;53.582;10.112;2024-01-30T19:00:53;102334.28;;;9.58
69857;BMP280;57147;53.582;10.112;2024-01-30T19:05:53;102336.66;;;9.54
69857;BMP280;57147;53.582;10.112;2024-01-30T19:10:53;102338.50;;;9.53
69857;BMP280;57147;53.582;10.112;2024-01-30T19:15:53;102310.84;;;9.33
69857;BMP280;57147;53.582;10.112;2024-01-30T19:20:54;102358.25;;;9.46
69857;BMP280;57147;53.582;10.112;2024-01-30T19:25:54;102347.66;;;9.46
69857;BMP280;57147;53.582;10.112;2024-01-30T19:30:54;102357.53;;;9.34
69857;BMP280;57147;53.582;10.112;2024-01-30T19:35:55;102369.41;;;9.31
69857;BMP280;57147;53.582;10.112;2024-01-30T19:40:55;102369.50;;;9.20
69857;BMP280;57147;53.582;10.112;2024-01-30T19:45:55;102380.59;;;9.17
69857;BMP280;57147;53.582;10.112;2024-01-30T19:50:55;102376.25;;;9.10
69857;BMP280;57147;53.582;10.112;2024-01-30T19:56:08;102375.59;;;9.03
69857;BMP280;57147;53.582;10.112;2024-01-30T20:01:08;102380.09;;;9.03
69857;BMP280;57147;53.582;10.112;2024-01-30T20:06:19;102372.84;;;8.98
69857;BMP280;57147;53.582;10.112;2024-01-30T20:11:19;102386.00;;;8.93
69857;BMP280;57147;53.582;10.112;2024-01-30T20:16:20;102337.78;;;8.63
69857;BMP280;57147;53.582;10.112;2024-01-30T20:21:20;102375.22;;;8.83
69857;BMP280;57147;53.582;10.112;2024-01-30T20:26:20;102376.38;;;8.87
69857;BMP280;57147;53.582;10.112;2024-01-30T20:31:21;102370.41;;;8.80
69857;BMP280;57147;53.582;10.112;2024-01-30T20:36:21;102351.47;;;8.60
69857;BMP280;57147;53.582;10.112;2024-01-30T20:41:22;102332.16;;;8.48
69857;BMP280;57147;53.582;10.112;2024-01-30T20:46:22;102312.91;;;8.35
69857;BMP280;57147;53.582;10.112;2024-01-30T20:51:22;102353.19;;;8.66
69857;BMP280;57147;53.582;10.112;2024-01-30T20:56:23;102291.44;;;8.20
69857;BMP280;57147;53.582;10.112;2024-01-30T21:01:23;102343.34;;;8.50
69857;BMP280;57147;53.582;10.112;2024-01-30T21:06:24;102331.78;;;8.56
69857;BMP280;57147;53.582;10.112;2024-01-30T21:11:24;102340.50;;;8.68
69857;BMP280;57147;53.582;10.112;2024-01-30T21:16:24;102345.91;;;8.73
69857;BMP280;57147;53.582;10.112;2024-01-30T21:21:25;102347.69;;;8.56
69857;BMP280;57147;53.582;10.112;2024-01-30T21:26:25;102325.94;;;8.25
69857;BMP280;57147;53.582;10.112;2024-01-30T21:31:25;102306.28;;;8.10
69857;BMP280;57147;53.582;10.112;2024-01-30T21:36:25;102311.03;;;7.96
69857;BMP280;57147;53.582;10.112;2024-01-30T21:41:26;102308.41;;;7.61
69857;BMP280;57147;53.582;10.112;2024-01-30T21:46:27;102311.50;;;7.46
69857;BMP280;57147;53.582;10.112;2024-01-30T21:51:27;102296.66;;;7.22
69857;BMP280;57147;53.582;10.112;2024-01-30T21:56:27;102331.25;;;7.32
69857;BMP280;57147;53.582;10.112;2024-01-30T22:01:27;102346.44;;;7.48
69857;BMP280;57147;53.582;10.112;2024-01-30T22:06:28;102349.53;;;7.34
69857;BMP280;57147;53.582;10.112;2024-01-30T22:11:28;102361.97;;;7.45
69857;BMP280;57147;53.582;10.112;2024-01-30T22:16:28;102361.84;;;7.40
69857;BMP280;57147;53.582;10.112;2024-01-30T22:21:28;102372.06;;;7.48
69857;BMP280;57147;53.582;10.112;2024-01-30T22:26:29;102374.00;;;7.29
69857;BMP280;57147;53.582;10.112;2024-01-30T22:31:29;102364.31;;;7.11
69857;BMP280;57147;53.582;10.112;2024-01-30T22:36:29;102362.94;;;6.91
69857;BMP280;57147;53.582;10.112;2024-01-30T22:41:30;102381.63;;;7.07
69857;BMP280;57147;53.582;10.112;2024-01-30T22:46:30;102396.97;;;6.80
69857;BMP280;57147;53.582;10.112;2024-01-30T22:51:30;102392.47;;;6.51
69857;BMP280;57147;53.582;10.112;2024-01-30T22:56:31;102373.38;;;6.12
69857;BMP280;57147;53.582;10.112;2024-01-30T23:01:31;102423.13;;;6.34
69857;BMP280;57147;53.582;10.112;2024-01-30T23:06:31;102428.94;;;6.18
69857;BMP280;57147;53.582;10.112;2024-01-30T23:11:31;102435.44;;;6.15
69857;BMP280;57147;53.582;10.112;2024-01-30T23:16:32;102434.31;;;6.04
69857;BMP280;57147;53.582;10.112;2024-01-30T23:21:32;102442.38;;;5.85
69857;BMP280;57147;53.582;10.112;2024-01-30T23:26:32;102460.44;;;5.81
69857;BMP280;57147;53.582;10.112;2024-01-30T23:31:32;102450.91;;;5.80
69857;BMP280;57147;53.582;10.112;2024-01-30T23:36:39;102424.69;;;5.67
69857;BMP280;57147;53.582;10.112;2024-01-30T23:41:39;102500.00;;;5.81
69857;BMP280;57147;53.582;10.112;2024-01-30T23:46:39;102473.44;;;5.76
69857;BMP280;57147;53.582;10.112;2024-01-30T23:51:39;102472.78;;;5.56
69857;BMP280;57147;53.582;10.112;2024-01-30T23:56:41;102467.94;;;5.53
